Aérodrome :
LOGIN :

S'inscrire | Disclaimer

   EN    FR    IT 

 










Légende :    VFR   VFR Marginal   IFR   IFR Intensif   IFR Très Intensif
Visi : 
Plafond : 
>= 8 km
>= 3000ft
5 à 8 km
1000 à 3000 ft
1500m à 5 km
500 à 1000 ft
800 à 1500m
200 à 500 ft
< 800m
< 200 ft
Symboles :   Orages  Brouillard  Fortes neiges  Fortes précipitations  Vent > 20 kt
SIGMETs :   Divers  Orages  Givrage  Turbulence  Onde Orograph.  Cendres Volcan.







- Altitude de l'aérodrome : 1768 ft


LEHC - Huesca Pirineos

DERNIER METAR :
  • 200330Z AUTO 35002KT 9999 NCD 02/01 Q1022

METARs EXPIRÉS :
  • 200300Z AUTO 34002KT 9999 NCD 00/M01 Q1022
  • 200230Z AUTO 36002KT 9999 NCD M01/M02 Q1023
  • 200200Z AUTO 34001KT 9999 NCD 01/M00 Q1023
  • 200130Z AUTO 36001KT 9999 NCD 01/00 Q1023
  • 200100Z AUTO 36002KT CAVOK 01/M00 Q1023

TAF TAF LEHC
Valide du 20 à 03h jusqu'au 21 à 03h UTC


200200Z 2003/2103 VRB04KT CAVOK TX15/2013Z TN01/2006Z
Pas de NOTAMs connus pour ce terrain.



MET'MAP, la Météo Aéronautique d'un coup d'oeil ! - Copyright ORBIFLY Décembre 2007 - Disclaimer

ORBIFLY MET'MAP TEAM :

Programmation & Développement : Alexandra Zaïnal
Conception & Développement : Baudouin d'Aumeries
Co-Programmation & Développement : Marc-Olivier Méhu
Soutien technique & logistique : Manuel Goepfert

Contact : metmap@orbifly.com




SOURCES & CREDITS :

   NOAA